Time;durP1;ratioP1;P1;durP2;ratioP2;P2;SDS_P1;SDS_P2;PMS_P1;PMS_P2;Temp;Humidity;BMP_temperature;BMP_pressure;BME280_temperature;BME280_humidity;BME280_pressure;Samples;Min_cycle;Max_cycle;Signal;HPM_P1;HPM_P2
2024/04/05 00:01:21;;;;;;;16.08;3.42;;;12.20;99.90;;;;;;5074296;28;20028;-79
2024/04/05 00:03:47;;;;;;;17.08;2.95;;;12.20;99.90;;;;;;5073062;28;20028;-78
2024/04/05 00:06:12;;;;;;;18.05;3.85;;;12.20;99.90;;;;;;5072655;28;20020;-79
2024/04/05 00:08:38;;;;;;;13.95;3.58;;;12.30;99.90;;;;;;5074329;28;20025;-80
2024/04/05 00:11:04;;;;;;;22.60;4.10;;;12.20;99.90;;;;;;5073748;28;20092;-78
2024/04/05 00:13:30;;;;;;;16.17;3.40;;;12.20;99.90;;;;;;5074019;28;20488;-79
2024/04/05 00:15:56;;;;;;;18.95;3.50;;;12.20;99.90;;;;;;5073956;28;20099;-78
2024/04/05 00:18:21;;;;;;;16.08;3.50;;;12.30;99.90;;;;;;5074227;28;20025;-79
2024/04/05 00:20:48;;;;;;;16.48;3.28;;;12.20;99.90;;;;;;5073784;28;20052;-79
2024/04/05 00:23:14;;;;;;;19.70;4.10;;;12.30;99.90;;;;;;5074037;28;20047;-79
2024/04/05 00:25:43;;;;;;;17.95;4.38;;;12.30;99.90;;;;;;5073226;28;20044;-79
2024/04/05 00:28:09;;;;;;;19.17;4.45;;;12.20;99.90;;;;;;5073147;28;20032;-78
2024/04/05 00:30:35;;;;;;;16.27;3.05;;;12.30;99.90;;;;;;5073616;28;20112;-79
2024/04/05 00:33:01;;;;;;;24.50;4.88;;;12.30;99.90;;;;;;5073878;28;20111;-78
2024/04/05 00:35:27;;;;;;;20.30;4.32;;;12.30;99.90;;;;;;5073313;28;20027;-78
2024/04/05 00:37:52;;;;;;;19.75;4.03;;;12.40;99.90;;;;;;5073819;28;20016;-79
2024/04/05 00:40:18;;;;;;;19.00;3.70;;;12.40;99.90;;;;;;5073221;28;20017;-78
2024/04/05 00:42:44;;;;;;;22.83;4.63;;;12.40;99.90;;;;;;5073687;28;20489;-79
2024/04/05 00:45:09;;;;;;;20.63;3.70;;;12.40;99.90;;;;;;5073441;28;20052;-78
2024/04/05 00:47:35;;;;;;;19.17;3.75;;;12.40;99.90;;;;;;5073496;28;20494;-78
2024/04/05 00:50:04;;;;;;;24.55;3.83;;;12.40;99.90;;;;;;5072958;28;20052;-78
2024/04/05 00:52:31;;;;;;;17.88;4.15;;;12.50;99.90;;;;;;5073466;28;20454;-78
2024/04/05 00:54:58;;;;;;;21.02;4.20;;;12.40;99.90;;;;;;5072906;28;20055;-77
2024/04/05 00:57:24;;;;;;;17.38;4.00;;;12.50;99.90;;;;;;5073576;28;20033;-78
2024/04/05 00:59:50;;;;;;;18.80;4.43;;;12.50;99.90;;;;;;5071600;28;20029;-78
2024/04/05 01:02:16;;;;;;;17.23;3.55;;;12.50;99.90;;;;;;5073406;28;20501;-78
2024/04/05 01:04:42;;;;;;;16.27;3.55;;;12.50;99.90;;;;;;5072815;28;20025;-78
2024/04/05 01:07:09;;;;;;;19.25;4.47;;;12.50;99.90;;;;;;5073273;28;20024;-78
2024/04/05 01:09:34;;;;;;;23.05;3.50;;;12.60;99.90;;;;;;5072953;28;20103;-78
2024/04/05 01:12:00;;;;;;;13.05;3.20;;;12.60;99.90;;;;;;5072808;28;20052;-78
2024/04/05 01:14:26;;;;;;;22.02;3.60;;;12.60;99.90;;;;;;5072881;28;20028;-78
2024/04/05 01:16:51;;;;;;;21.77;3.67;;;12.60;99.90;;;;;;5072460;28;20050;-78
2024/04/05 01:19:17;;;;;;;23.65;3.65;;;12.60;99.90;;;;;;5072959;28;20397;-78
2024/04/05 01:21:50;;;;;;;19.17;3.63;;;12.60;99.90;;;;;;5071323;28;20024;-78
2024/04/05 01:24:16;;;;;;;18.67;4.38;;;12.60;99.90;;;;;;5072740;28;20020;-77
2024/04/05 01:26:42;;;;;;;17.35;3.30;;;12.60;99.90;;;;;;5072497;28;20032;-78
2024/04/05 01:29:08;;;;;;;18.33;3.60;;;12.60;99.90;;;;;;5073056;28;20032;-78
2024/04/05 01:31:33;;;;;;;17.88;3.33;;;12.60;99.90;;;;;;5072354;28;20024;-78
2024/04/05 01:33:59;;;;;;;20.77;4.47;;;12.60;99.90;;;;;;5072614;28;20146;-78
2024/04/05 01:36:25;;;;;;;21.30;3.17;;;12.60;99.90;;;;;;5072344;28;20024;-78
2024/04/05 01:38:50;;;;;;;18.00;4.05;;;12.60;99.90;;;;;;5072741;28;20370;-78
2024/04/05 01:41:21;;;;;;;19.15;3.40;;;12.60;99.90;;;;;;5072093;28;20028;-78
2024/04/05 01:43:47;;;;;;;18.77;3.45;;;12.60;99.90;;;;;;5072574;28;20036;-78
2024/04/05 01:46:12;;;;;;;19.92;4.15;;;12.60;99.90;;;;;;5072120;28;20579;-78
2024/04/05 01:48:38;;;;;;;16.05;3.40;;;12.60;99.90;;;;;;5072280;28;20033;-78
2024/04/05 01:51:04;;;;;;;21.10;4.00;;;12.60;99.90;;;;;;5070494;28;20056;-78
2024/04/05 01:53:30;;;;;;;16.35;3.10;;;12.70;99.90;;;;;;5072617;28;20111;-78
2024/04/05 01:56:03;;;;;;;22.70;4.22;;;12.60;99.90;;;;;;5072104;28;20044;-78
2024/04/05 01:58:30;;;;;;;21.35;3.17;;;12.60;99.90;;;;;;5072369;28;20505;-78
2024/04/05 02:01:02;;;;;;;19.23;3.67;;;12.60;99.90;;;;;;5071771;28;20025;-78
2024/04/05 02:03:29;;;;;;;19.48;3.47;;;12.60;99.90;;;;;;5072215;28;20104;-78
2024/04/05 02:05:55;;;;;;;21.08;3.63;;;12.60;99.90;;;;;;5071619;28;20047;-78
2024/04/05 02:08:20;;;;;;;23.90;4.28;;;12.60;99.90;;;;;;5072469;28;20024;-77
2024/04/05 02:10:46;;;;;;;18.95;3.10;;;12.50;99.90;;;;;;5071699;28;20025;-78
2024/04/05 02:13:12;;;;;;;21.65;4.28;;;12.50;99.90;;;;;;5072488;28;20032;-78
2024/04/05 02:15:47;;;;;;;18.83;3.65;;;12.50;99.90;;;;;;5071497;28;20024;-78
2024/04/05 02:18:13;;;;;;;20.83;4.15;;;12.50;99.90;;;;;;5072494;28;20109;-78
2024/04/05 02:20:41;;;;;;;20.35;3.67;;;12.50;99.90;;;;;;5071140;28;20128;-78
2024/04/05 02:23:07;;;;;;;16.95;3.70;;;12.40;99.90;;;;;;5072235;28;20026;-78
2024/04/05 02:25:32;;;;;;;16.55;2.80;;;12.40;99.90;;;;;;5071458;28;20021;-77
2024/04/05 02:27:58;;;;;;;16.13;3.38;;;12.40;99.90;;;;;;5072156;28;20086;-77
2024/04/05 02:30:24;;;;;;;13.98;2.92;;;12.30;99.90;;;;;;5071445;28;20028;-77
2024/04/05 02:32:50;;;;;;;23.80;3.53;;;12.30;99.90;;;;;;5070777;28;20032;-78
2024/04/05 02:35:15;;;;;;;16.90;4.35;;;12.30;99.90;;;;;;5069769;28;20028;-77
2024/04/05 02:37:41;;;;;;;16.40;3.63;;;12.30;99.90;;;;;;5072313;28;20387;-78
2024/04/05 02:40:08;;;;;;;17.55;3.50;;;12.20;99.90;;;;;;5071114;28;20035;-77
2024/04/05 02:42:33;;;;;;;18.98;3.20;;;12.20;99.90;;;;;;5071953;28;20029;-77
2024/04/05 02:44:59;;;;;;;15.32;3.25;;;12.20;99.90;;;;;;5071458;28;20103;-78
2024/04/05 02:47:25;;;;;;;20.58;4.05;;;12.20;99.90;;;;;;5071970;28;20055;-77
2024/04/05 02:49:53;;;;;;;23.35;4.00;;;12.20;99.90;;;;;;5072892;28;20027;-77
2024/04/05 02:52:19;;;;;;;20.42;3.55;;;12.20;99.90;;;;;;5075671;28;20029;-78
2024/04/05 02:54:44;;;;;;;16.88;3.88;;;12.20;99.90;;;;;;5075859;28;20059;-78
2024/04/05 02:57:10;;;;;;;24.88;3.17;;;12.20;99.90;;;;;;5075532;28;20020;-78
2024/04/05 02:59:36;;;;;;;19.08;3.60;;;12.20;99.90;;;;;;5074492;28;20474;-78
2024/04/05 03:02:01;;;;;;;16.85;3.33;;;12.20;99.90;;;;;;5075216;28;20113;-78
2024/04/05 03:04:27;;;;;;;15.35;3.45;;;12.20;99.90;;;;;;5075452;28;20055;-78
2024/04/05 03:06:56;;;;;;;22.67;4.03;;;12.20;99.90;;;;;;5074947;28;20021;-77
2024/04/05 03:09:21;;;;;;;22.48;3.28;;;12.20;99.90;;;;;;5074218;28;20032;-78
2024/04/05 03:11:47;;;;;;;21.45;4.40;;;12.20;99.90;;;;;;5073466;28;20078;-78
2024/04/05 03:14:13;;;;;;;17.77;3.25;;;12.20;99.90;;;;;;5075511;28;20040;-78
2024/04/05 03:16:39;;;;;;;16.25;3.95;;;12.20;99.90;;;;;;5074662;28;20043;-78
2024/04/05 03:19:05;;;;;;;16.80;3.78;;;12.20;99.90;;;;;;5075378;28;20470;-78
2024/04/05 03:21:32;;;;;;;21.38;4.25;;;12.20;99.90;;;;;;5074682;28;20023;-78
2024/04/05 03:23:58;;;;;;;19.92;3.45;;;12.30;99.90;;;;;;5075430;28;20032;-78
2024/04/05 03:26:23;;;;;;;21.02;3.83;;;12.30;99.90;;;;;;5074339;28;20478;-77
2024/04/05 03:28:49;;;;;;;18.35;3.28;;;12.30;99.90;;;;;;5075356;28;20036;-78
2024/04/05 03:31:14;;;;;;;20.73;4.15;;;12.30;99.90;;;;;;5074446;28;20024;-78
2024/04/05 03:33:40;;;;;;;14.27;3.90;;;12.30;99.90;;;;;;5075596;28;20478;-78
2024/04/05 03:36:06;;;;;;;21.15;3.60;;;12.40;99.90;;;;;;5074303;28;20021;-78
2024/04/05 03:38:32;;;;;;;18.98;3.35;;;12.40;99.90;;;;;;5075341;28;20096;-78
2024/04/05 03:41:01;;;;;;;18.17;4.07;;;12.40;99.90;;;;;;5074168;28;20100;-78
2024/04/05 03:43:27;;;;;;;14.00;4.03;;;12.50;99.90;;;;;;5074011;28;20286;-78
2024/04/05 03:45:53;;;;;;;18.95;3.92;;;12.50;99.90;;;;;;5074079;28;20032;-78
2024/04/05 03:48:18;;;;;;;16.70;4.78;;;12.50;99.90;;;;;;5073658;28;20497;-78
2024/04/05 03:50:44;;;;;;;14.73;4.35;;;12.60;99.90;;;;;;5073839;28;20101;-78
2024/04/05 03:53:10;;;;;;;20.70;3.55;;;12.60;99.90;;;;;;5074835;28;20025;-78
2024/04/05 03:55:35;;;;;;;19.10;3.55;;;12.60;99.90;;;;;;5074227;28;20024;-78
2024/04/05 03:58:01;;;;;;;16.67;3.13;;;12.60;99.90;;;;;;5074737;28;20481;-78
2024/04/05 04:00:26;;;;;;;15.40;3.30;;;12.60;99.90;;;;;;5074174;28;20024;-78
2024/04/05 04:02:52;;;;;;;18.08;4.10;;;12.60;99.90;;;;;;5074575;28;20046;-78
2024/04/05 04:05:19;;;;;;;16.48;3.67;;;12.60;99.90;;;;;;5073657;28;20063;-78
2024/04/05 04:07:45;;;;;;;22.33;4.43;;;12.60;99.90;;;;;;5073410;28;20031;-77
2024/04/05 04:10:12;;;;;;;15.02;2.85;;;12.60;99.90;;;;;;5074395;28;20029;-78
2024/04/05 04:12:38;;;;;;;18.75;3.55;;;12.60;99.90;;;;;;5073891;28;20025;-77
2024/04/05 04:15:05;;;;;;;17.02;3.35;;;12.60;99.90;;;;;;5074440;28;20031;-77
2024/04/05 04:17:31;;;;;;;13.60;2.95;;;12.60;99.90;;;;;;5073682;28;20095;-77
2024/04/05 04:19:59;;;;;;;14.30;3.80;;;12.50;99.90;;;;;;5074683;28;20111;-77
2024/04/05 04:22:25;;;;;;;12.80;2.95;;;12.50;99.90;;;;;;5073749;28;20096;-76
2024/04/05 04:24:50;;;;;;;18.95;3.60;;;12.50;99.90;;;;;;5074298;28;20075;-76
2024/04/05 04:27:17;;;;;;;18.75;3.60;;;12.50;99.90;;;;;;5073341;28;20033;-77
2024/04/05 04:29:43;;;;;;;17.17;3.70;;;12.50;99.90;;;;;;5074283;28;20020;-76
2024/04/05 04:32:09;;;;;;;23.52;3.95;;;12.50;99.90;;;;;;5073207;28;20028;-76
2024/04/05 04:34:34;;;;;;;17.95;3.30;;;12.50;99.90;;;;;;5074143;28;20537;-76
2024/04/05 04:37:00;;;;;;;18.15;4.10;;;12.50;99.90;;;;;;5073304;28;20413;-76
2024/04/05 04:39:26;;;;;;;17.23;3.72;;;12.50;99.90;;;;;;5074120;28;20481;-76
2024/04/05 04:41:54;;;;;;;12.68;3.00;;;12.50;99.90;;;;;;5073205;28;20058;-76
2024/04/05 04:44:21;;;;;;;15.65;3.35;;;12.40;99.90;;;;;;5073842;28;20013;-76
2024/04/05 04:46:46;;;;;;;21.65;3.92;;;12.40;99.90;;;;;;5072891;28;20397;-76
2024/04/05 04:49:12;;;;;;;14.73;3.42;;;12.40;99.90;;;;;;5074038;28;20017;-76
2024/04/05 04:51:37;;;;;;;18.23;3.17;;;12.40;99.90;;;;;;5072492;28;20056;-76
2024/04/05 04:54:03;;;;;;;20.10;3.08;;;12.30;99.90;;;;;;5073593;28;20128;-76
2024/04/05 04:56:30;;;;;;;21.33;3.22;;;12.40;99.90;;;;;;5072863;28;20075;-76
2024/04/05 04:58:57;;;;;;;18.58;3.55;;;12.30;99.90;;;;;;5073536;28;20029;-77
2024/04/05 05:01:23;;;;;;;16.17;3.20;;;12.30;99.90;;;;;;5072690;28;20028;-76
2024/04/05 05:03:49;;;;;;;18.65;3.58;;;12.30;99.90;;;;;;5073455;28;20033;-76
2024/04/05 05:06:15;;;;;;;9.18;2.88;;;12.40;99.90;;;;;;5071251;28;20369;-76
2024/04/05 05:08:40;;;;;;;14.23;3.17;;;12.40;99.90;;;;;;5073550;28;20444;-76
2024/04/05 05:11:06;;;;;;;20.77;3.83;;;12.40;99.90;;;;;;5072866;28;20024;-76
2024/04/05 05:13:32;;;;;;;17.63;4.03;;;12.40;99.90;;;;;;5072596;28;20020;-75
2024/04/05 05:15:57;;;;;;;15.85;3.33;;;12.40;99.90;;;;;;5072747;28;20027;-76
2024/04/05 05:18:23;;;;;;;17.25;3.70;;;12.40;99.90;;;;;;5072923;28;20013;-76
2024/04/05 05:20:51;;;;;;;13.07;3.15;;;12.40;99.90;;;;;;5072843;28;20025;-76
2024/04/05 05:23:17;;;;;;;12.30;3.42;;;12.40;99.90;;;;;;5072864;28;20104;-77
2024/04/05 05:25:45;;;;;;;16.45;3.10;;;12.50;99.90;;;;;;5072691;28;20052;-77
2024/04/05 05:28:11;;;;;;;13.23;3.22;;;12.50;99.90;;;;;;5071580;28;20394;-76
2024/04/05 05:30:37;;;;;;;16.02;3.58;;;12.50;99.90;;;;;;5072514;28;20400;-77
2024/04/05 05:33:07;;;;;;;17.25;3.75;;;12.60;99.90;;;;;;5072724;28;20020;-76
2024/04/05 05:35:33;;;;;;;17.00;3.38;;;12.60;99.90;;;;;;5072494;28;20489;-76
2024/04/05 05:37:59;;;;;;;13.57;3.08;;;12.60;99.90;;;;;;5072667;28;20103;-77
2024/04/05 05:40:26;;;;;;;14.23;2.90;;;12.60;99.90;;;;;;5072863;28;20024;-76
2024/04/05 05:42:52;;;;;;;15.73;3.40;;;12.70;99.90;;;;;;5072010;28;20490;-76
2024/04/05 05:45:18;;;;;;;10.90;2.90;;;12.70;99.90;;;;;;5072966;28;20024;-77
2024/04/05 05:47:44;;;;;;;15.15;2.85;;;12.70;99.90;;;;;;5071836;28;20048;-77
2024/04/05 05:50:09;;;;;;;13.05;3.00;;;12.70;99.90;;;;;;5072589;28;20065;-76
2024/04/05 05:52:35;;;;;;;10.43;2.72;;;12.80;99.90;;;;;;5072053;28;20029;-77
2024/04/05 05:55:01;;;;;;;15.35;3.13;;;12.80;99.90;;;;;;5072727;28;20021;-76
2024/04/05 05:57:27;;;;;;;10.98;2.60;;;12.90;99.90;;;;;;5071947;28;20027;-77
2024/04/05 05:59:53;;;;;;;17.45;2.88;;;12.90;99.90;;;;;;5072707;28;20395;-76
2024/04/05 06:02:20;;;;;;;11.30;2.63;;;12.90;99.90;;;;;;5071455;28;20021;-77
2024/04/05 06:04:46;;;;;;;14.27;3.00;;;13.00;99.90;;;;;;5072814;28;20029;-76
2024/04/05 06:07:11;;;;;;;7.55;2.70;;;13.00;99.90;;;;;;5071594;28;20417;-77
2024/04/05 06:09:37;;;;;;;10.80;2.22;;;13.00;99.90;;;;;;5072624;28;20036;-77
2024/04/05 06:12:03;;;;;;;12.20;2.88;;;13.10;99.90;;;;;;5071588;28;20369;-77
2024/04/05 06:14:28;;;;;;;12.20;2.95;;;13.10;99.90;;;;;;5070618;28;20120;-77
2024/04/05 06:16:54;;;;;;;12.45;2.67;;;13.20;99.90;;;;;;5071686;28;20020;-77
2024/04/05 06:19:20;;;;;;;11.98;2.40;;;13.20;99.90;;;;;;5072504;28;20021;-76
2024/04/05 06:21:45;;;;;;;10.98;2.92;;;13.30;99.90;;;;;;5071895;28;20019;-77
2024/04/05 06:24:11;;;;;;;14.63;3.03;;;13.40;99.90;;;;;;5071203;28;20370;-77
2024/04/05 06:26:37;;;;;;;13.68;2.83;;;13.40;99.90;;;;;;5071749;28;20527;-77
2024/04/05 06:29:02;;;;;;;13.95;2.90;;;13.40;99.90;;;;;;5070809;28;20025;-77
2024/04/05 06:31:28;;;;;;;11.30;2.53;;;13.50;99.90;;;;;;5071636;28;20027;-77
2024/04/05 06:33:57;;;;;;;14.45;3.22;;;13.50;99.90;;;;;;5072211;28;20527;-77
2024/04/05 06:36:22;;;;;;;11.10;2.75;;;13.60;99.90;;;;;;5071812;28;20017;-77
2024/04/05 06:38:48;;;;;;;11.23;2.83;;;13.60;99.90;;;;;;5072217;28;20027;-76
2024/04/05 06:41:14;;;;;;;11.23;2.67;;;13.60;99.90;;;;;;5071819;28;20470;-77
2024/04/05 06:43:39;;;;;;;11.63;2.88;;;13.60;99.90;;;;;;5072036;28;20024;-77
2024/04/05 06:46:07;;;;;;;15.45;2.88;;;13.70;99.90;;;;;;5071439;28;20032;-77
2024/04/05 06:48:32;;;;;;;12.48;2.97;;;13.70;99.90;;;;;;5071806;28;20021;-77
2024/04/05 06:50:58;;;;;;;11.40;2.63;;;13.70;99.90;;;;;;5071330;28;20123;-77
2024/04/05 06:53:24;;;;;;;7.55;2.90;;;13.70;99.90;;;;;;5071613;28;20504;-76
2024/04/05 06:55:51;;;;;;;10.57;2.90;;;13.70;99.90;;;;;;5071599;28;20020;-76
2024/04/05 06:58:17;;;;;;;12.85;3.20;;;13.70;99.90;;;;;;5071766;28;20056;-77
2024/04/05 07:00:44;;;;;;;14.98;2.97;;;13.70;99.90;;;;;;5071838;28;20039;-77
2024/04/05 07:03:09;;;;;;;12.20;2.72;;;13.70;99.90;;;;;;5071242;28;20049;-77
2024/04/05 07:05:35;;;;;;;15.52;3.50;;;13.80;99.90;;;;;;5072032;28;20059;-77
2024/04/05 07:08:01;;;;;;;21.20;3.50;;;13.80;99.90;;;;;;5071203;28;20031;-78
2024/04/05 07:10:28;;;;;;;12.27;2.95;;;13.80;99.90;;;;;;5070766;28;20030;-77
2024/04/05 07:12:54;;;;;;;10.55;3.00;;;13.90;99.90;;;;;;5071106;28;20144;-77
2024/04/05 07:15:20;;;;;;;12.23;3.22;;;13.90;99.90;;;;;;5071511;28;20043;-77
2024/04/05 07:17:51;;;;;;;9.93;2.53;;;13.90;99.90;;;;;;5071377;28;20021;-77
2024/04/05 07:20:17;;;;;;;;;;;13.90;99.90;;;;;;5072321;28;20058;-77
2024/04/05 07:22:43;;;;;;;9.57;2.42;;;14.00;99.90;;;;;;5070032;28;19908;-77
2024/04/05 07:25:12;;;;;;;12.40;2.92;;;14.00;99.90;;;;;;5070368;28;20467;-77
2024/04/05 07:27:37;;;;;;;10.43;2.65;;;14.00;99.90;;;;;;5071027;28;20078;-77
2024/04/05 07:30:04;;;;;;;13.60;2.70;;;14.00;99.90;;;;;;5071141;28;20025;-77
2024/04/05 07:32:30;;;;;;;10.80;2.92;;;14.10;99.90;;;;;;5071259;28;20436;-77
2024/04/05 07:34:56;;;;;;;10.23;2.72;;;14.10;99.90;;;;;;5071503;28;20024;-77
2024/04/05 07:37:21;;;;;;;11.93;2.83;;;14.10;99.90;;;;;;5074363;28;20098;-76
2024/04/05 07:39:49;;;;;;;10.75;2.92;;;14.10;99.90;;;;;;5075146;28;20047;-75
2024/04/05 07:42:16;;;;;;;10.30;3.38;;;14.10;99.90;;;;;;5074562;28;20032;-75
2024/04/05 07:44:43;;;;;;;11.13;3.08;;;14.10;99.90;;;;;;5074838;28;20025;-76
2024/04/05 07:47:09;;;;;;;11.55;2.40;;;14.20;99.90;;;;;;5073290;28;20031;-76
2024/04/05 07:49:35;;;;;;;8.80;2.60;;;14.20;99.90;;;;;;5073491;28;20032;-75
2024/04/05 07:52:01;;;;;;;11.50;2.58;;;14.20;99.90;;;;;;5074388;28;20061;-76
2024/04/05 07:54:26;;;;;;;8.95;2.15;;;14.20;99.90;;;;;;5074947;28;20024;-76
2024/04/05 07:56:52;;;;;;;8.80;2.40;;;14.20;99.90;;;;;;5074473;28;20013;-76
2024/04/05 07:59:18;;;;;;;7.32;2.40;;;14.30;99.90;;;;;;5074626;28;20025;-76
2024/04/05 08:01:44;;;;;;;8.13;2.55;;;14.30;99.90;;;;;;5073050;28;20390;-76
2024/04/05 08:04:10;;;;;;;8.63;2.67;;;14.30;99.90;;;;;;5074782;28;20020;-76
2024/04/05 08:06:36;;;;;;;13.95;2.70;;;14.40;99.90;;;;;;5074232;28;20115;-76
2024/04/05 08:09:02;;;;;;;8.48;1.83;;;14.40;99.90;;;;;;5074561;28;20604;-76
2024/04/05 08:11:28;;;;;;;13.38;2.58;;;14.40;99.90;;;;;;5074295;28;20056;-76
2024/04/05 08:13:54;;;;;;;8.40;2.20;;;14.50;99.90;;;;;;5074376;28;20067;-76
2024/04/05 08:16:20;;;;;;;6.45;1.90;;;14.50;99.90;;;;;;5074013;28;20031;-76
2024/04/05 08:18:46;;;;;;;9.52;2.05;;;14.50;99.90;;;;;;5073508;28;20020;-76
2024/04/05 08:21:11;;;;;;;6.78;1.73;;;14.50;99.90;;;;;;5074048;28;20024;-76
2024/04/05 08:23:37;;;;;;;9.23;2.30;;;14.50;99.90;;;;;;5074769;28;20032;-76
2024/04/05 08:26:03;;;;;;;10.38;2.85;;;14.50;99.90;;;;;;5074372;28;20027;-76
2024/04/05 08:28:29;;;;;;;7.10;1.75;;;14.50;99.90;;;;;;5074126;28;20428;-76
2024/04/05 08:30:54;;;;;;;11.20;2.90;;;14.50;99.90;;;;;;5074175;28;20043;-76
2024/04/05 08:33:20;;;;;;;8.60;2.25;;;14.50;99.90;;;;;;5072353;28;20075;-76
2024/04/05 08:35:53;;;;;;;7.78;1.98;;;14.50;99.90;;;;;;5074282;28;20029;-76
2024/04/05 08:38:18;;;;;;;8.57;2.20;;;14.50;99.90;;;;;;5073757;28;20497;-76
2024/04/05 08:40:45;;;;;;;11.43;2.78;;;14.50;99.90;;;;;;5073917;28;20024;-76
2024/04/05 08:43:13;;;;;;;9.27;2.55;;;14.50;99.90;;;;;;5073517;28;20037;-76
2024/04/05 08:45:39;;;;;;;10.45;2.30;;;14.50;99.90;;;;;;5074172;28;20021;-75
2024/04/05 08:48:05;;;;;;;12.07;2.95;;;14.50;99.90;;;;;;5071344;28;20032;-76
2024/04/05 08:50:34;;;;;;;10.50;2.00;;;14.50;99.90;;;;;;5073484;28;20056;-76
2024/04/05 08:52:59;;;;;;;9.05;2.33;;;14.50;99.90;;;;;;5073296;28;20017;-76
2024/04/05 08:55:25;;;;;;;10.32;2.63;;;14.50;99.90;;;;;;5073732;28;20370;-75
2024/04/05 08:57:52;;;;;;;8.93;2.20;;;14.50;99.90;;;;;;5073438;28;20474;-76
2024/04/05 09:00:23;;;;;;;9.10;2.10;;;14.50;99.90;;;;;;5073913;28;20158;-75
2024/04/05 09:02:58;;;;;;;6.15;2.00;;;14.50;99.90;;;;;;5073363;28;20382;-75
2024/04/05 09:05:24;;;;;;;7.15;2.05;;;14.50;99.90;;;;;;5073255;28;20025;-75
2024/04/05 09:07:50;;;;;;;8.20;2.13;;;14.60;99.90;;;;;;5073370;28;20024;-76
2024/04/05 09:10:17;;;;;;;7.05;2.08;;;14.60;99.90;;;;;;5073511;28;20029;-77
2024/04/05 09:12:51;;;;;;;7.75;2.47;;;14.60;99.90;;;;;;5071865;28;20024;-76
2024/04/05 09:15:20;;;;;;;9.50;1.98;;;14.60;99.90;;;;;;5073830;28;20099;-76
2024/04/05 09:17:46;;;;;;;8.38;2.38;;;14.70;99.90;;;;;;5073051;28;20095;-75
2024/04/05 09:20:19;;;;;;;8.73;1.95;;;14.70;99.90;;;;;;5073404;28;20040;-75
2024/04/05 09:22:46;;;;;;;9.57;2.13;;;14.70;99.90;;;;;;5072878;28;20040;-76
2024/04/05 09:25:12;;;;;;;10.85;1.80;;;14.70;99.90;;;;;;5073201;28;20089;-76
2024/04/05 09:27:38;;;;;;;7.93;2.17;;;14.70;99.90;;;;;;5073041;28;20085;-75
2024/04/05 09:30:05;;;;;;;7.97;2.05;;;14.70;99.90;;;;;;5073042;28;20028;-75
2024/04/05 09:32:31;;;;;;;6.22;1.95;;;14.70;99.90;;;;;;5072360;28;20099;-75
2024/04/05 09:34:57;;;;;;;5.80;2.10;;;14.70;99.90;;;;;;5073251;28;20028;-75
2024/04/05 09:37:26;;;;;;;6.40;1.70;;;14.70;99.90;;;;;;5072172;28;20016;-75
2024/04/05 09:39:52;;;;;;;9.43;2.17;;;14.70;99.90;;;;;;5072928;28;20032;-75
2024/04/05 09:42:22;;;;;;;6.40;2.10;;;14.70;99.90;;;;;;5072213;28;20103;-75
2024/04/05 09:44:50;;;;;;;6.47;2.05;;;14.70;99.90;;;;;;5071613;28;20069;-75
2024/04/05 09:47:19;;;;;;;9.48;2.30;;;14.80;99.90;;;;;;5072131;28;20036;-77
2024/04/05 09:49:45;;;;;;;9.73;2.40;;;14.80;99.90;;;;;;5072718;28;20389;-74
2024/04/05 09:52:14;;;;;;;9.38;2.25;;;14.80;99.90;;;;;;5070699;28;20056;-75
2024/04/05 09:54:40;;;;;;;6.22;2.00;;;14.80;99.90;;;;;;5071286;28;20122;-75
2024/04/05 09:57:13;;;;;;;8.07;2.17;;;14.70;99.90;;;;;;5070614;28;20028;-75
2024/04/05 09:59:42;;;;;;;6.50;2.10;;;14.70;99.90;;;;;;5071202;28;20021;-75
2024/04/05 10:02:10;;;;;;;6.07;2.10;;;14.60;99.90;;;;;;5071467;28;20059;-75
2024/04/05 10:04:37;;;;;;;5.22;2.00;;;14.60;99.90;;;;;;5072775;28;20032;-75
2024/04/05 10:07:06;;;;;;;9.98;2.50;;;14.60;99.90;;;;;;5071839;28;20032;-76
2024/04/05 10:09:35;;;;;;;7.68;2.28;;;14.60;99.90;;;;;;5072613;28;20029;-76
2024/04/05 10:12:16;;;;;;;8.77;1.95;;;14.70;99.90;;;;;;5071410;28;20033;-76
2024/04/05 10:14:57;;;;;;;8.43;2.42;;;14.70;99.90;;;;;;5072387;28;20031;-75
2024/04/05 10:17:29;;;;;;;4.47;1.92;;;14.70;99.90;;;;;;5071952;28;20028;-75
2024/04/05 10:20:06;;;;;;;5.65;2.60;;;14.80;99.90;;;;;;5072221;28;20032;-75
2024/04/05 10:22:33;;;;;;;7.03;2.25;;;14.80;99.90;;;;;;5071417;28;20081;-75
2024/04/05 10:24:59;;;;;;;7.53;2.08;;;14.90;99.90;;;;;;5070993;28;20023;-76
2024/04/05 10:27:26;;;;;;;7.65;2.08;;;15.00;99.90;;;;;;5071363;28;20037;-75
2024/04/05 10:30:03;;;;;;;7.10;2.20;;;15.10;99.90;;;;;;5072007;28;20054;-75
2024/04/05 10:32:30;;;;;;;4.68;2.08;;;15.20;99.90;;;;;;5070031;28;20024;-75
2024/04/05 10:35:11;;;;;;;5.85;1.88;;;15.20;99.90;;;;;;5072178;28;20025;-75
2024/04/05 10:37:41;;;;;;;9.35;1.90;;;15.30;99.90;;;;;;5071147;28;20021;-75
2024/04/05 10:40:13;;;;;;;5.03;1.75;;;15.40;99.90;;;;;;5071887;28;20025;-75
2024/04/05 10:42:40;;;;;;;4.75;1.83;;;15.40;99.90;;;;;;5071206;28;20020;-75
2024/04/05 10:45:07;;;;;;;7.88;1.75;;;15.40;99.90;;;;;;5072047;28;20032;-75
2024/04/05 10:47:33;;;;;;;5.65;1.50;;;15.40;99.90;;;;;;5071173;28;20020;-76
2024/04/05 10:50:05;;;;;;;11.45;2.53;;;15.50;99.90;;;;;;5071807;28;20024;-76
2024/04/05 10:52:33;;;;;;;5.63;1.85;;;15.60;99.90;;;;;;5071269;28;20028;-75
2024/04/05 10:55:12;;;;;;;4.35;1.67;;;15.70;99.90;;;;;;5070464;28;20025;-76
2024/04/05 10:57:38;;;;;;;7.45;2.40;;;15.80;99.90;;;;;;5071215;28;20016;-76
2024/04/05 11:00:05;;;;;;;5.30;1.67;;;15.90;99.90;;;;;;5071999;28;20031;-75
2024/04/05 11:02:31;;;;;;;7.50;2.22;;;15.90;99.90;;;;;;5071086;28;20047;-75
2024/04/05 11:05:13;;;;;;;5.38;2.13;;;16.00;99.90;;;;;;5021194;22;20093;-76
2024/04/05 11:07:39;;;;;;;4.85;1.90;;;16.00;99.90;;;;;;5037712;28;20035;-76
2024/04/05 11:10:21;;;;;;;7.40;2.20;;;16.00;99.90;;;;;;5027471;28;20018;-76
2024/04/05 11:12:47;;;;;;;4.22;1.75;;;16.00;99.90;;;;;;5015689;28;20045;-75
2024/04/05 11:15:19;;;;;;;3.83;1.45;;;16.00;99.90;;;;;;5016045;28;20029;-75
2024/04/05 11:17:56;;;;;;;8.18;2.30;;;16.10;99.90;;;;;;5014932;28;20505;-75
2024/04/05 11:20:22;;;;;;;8.80;2.33;;;16.10;99.90;;;;;;5016097;28;20025;-77
2024/04/05 11:22:54;;;;;;;5.57;1.77;;;16.10;99.90;;;;;;5014960;28;20018;-75
2024/04/05 11:25:23;;;;;;;9.57;2.35;;;16.20;99.90;;;;;;5014903;28;20402;-75
2024/04/05 11:27:48;;;;;;;10.43;2.25;;;16.20;99.90;;;;;;5015237;28;20088;-75
2024/04/05 11:30:14;;;;;;;6.70;2.15;;;16.20;99.90;;;;;;5016173;28;20065;-76
2024/04/05 11:32:41;;;;;;;6.50;2.22;;;16.20;99.90;;;;;;5014840;28;20022;-76
2024/04/05 11:35:08;;;;;;;6.10;1.98;;;16.30;99.90;;;;;;5015855;28;20026;-75
2024/04/05 11:37:34;;;;;;;3.78;1.40;;;16.30;99.90;;;;;;5015029;28;20022;-75
2024/04/05 11:39:59;;;;;;;6.82;1.67;;;16.40;99.90;;;;;;5015687;28;20048;-75
2024/04/05 11:42:25;;;;;;;4.20;1.50;;;16.40;99.90;;;;;;5013660;28;20018;-75
2024/04/05 11:44:51;;;;;;;6.05;1.88;;;16.50;99.90;;;;;;5015527;28;20026;-75
2024/04/05 11:47:21;;;;;;;4.13;1.20;;;16.50;99.90;;;;;;5014582;28;20030;-75
2024/04/05 11:49:48;;;;;;;3.10;1.50;;;16.60;99.90;;;;;;5015641;28;20029;-77
2024/04/05 11:52:14;;;;;;;3.70;1.50;;;16.60;99.90;;;;;;5014221;28;20368;-75
2024/04/05 11:54:39;;;;;;;1.48;1.02;;;16.60;99.90;;;;;;5014828;28;20037;-75
2024/04/05 11:57:05;;;;;;;7.10;1.50;;;16.60;99.90;;;;;;5014440;28;20026;-75
2024/04/05 11:59:31;;;;;;;3.47;1.30;;;16.60;99.90;;;;;;5014867;28;20029;-75
2024/04/05 12:01:56;;;;;;;3.72;1.40;;;16.60;99.90;;;;;;5014446;28;20036;-76
2024/04/05 12:04:23;;;;;;;6.30;1.63;;;16.60;99.90;;;;;;5014802;28;20080;-75
2024/04/05 12:06:50;;;;;;;4.07;1.20;;;16.60;99.90;;;;;;5013384;28;20045;-75
2024/04/05 12:09:16;;;;;;;4.40;1.73;;;16.50;99.90;;;;;;5014631;28;20038;-75
2024/04/05 12:11:44;;;;;;;4.28;1.20;;;16.50;99.90;;;;;;5015031;28;20022;-75
2024/04/05 12:14:11;;;;;;;3.72;1.95;;;16.50;99.90;;;;;;5014039;28;20133;-75
2024/04/05 12:16:36;;;;;;;4.97;1.65;;;16.50;99.90;;;;;;5014928;28;20030;-75
2024/04/05 12:19:02;;;;;;;8.38;2.53;;;16.50;99.90;;;;;;5013976;28;20029;-75
2024/04/05 12:21:28;;;;;;;3.80;1.65;;;16.50;99.90;;;;;;5014780;28;20033;-76
2024/04/05 12:23:56;;;;;;;5.90;2.70;;;16.50;99.90;;;;;;5014020;28;20022;-76
2024/04/05 12:26:22;;;;;;;4.82;2.40;;;16.40;99.90;;;;;;5014641;28;20480;-77
2024/04/05 12:28:49;;;;;;;4.53;1.70;;;16.30;99.90;;;;;;5013804;28;20113;-75
2024/04/05 12:31:15;;;;;;;5.53;2.20;;;16.30;99.90;;;;;;5014532;28;20073;-76
2024/04/05 12:33:41;;;;;;;3.25;1.50;;;16.30;99.90;;;;;;5013886;28;20423;-76
2024/04/05 12:36:07;;;;;;;4.95;1.70;;;16.40;99.90;;;;;;5014633;28;20482;-75
2024/04/05 12:38:38;;;;;;;5.00;1.90;;;16.30;99.90;;;;;;5013854;28;20021;-76